createdAt,value
2018-04-15T00:00:26.000Z,100345
2018-04-15T00:02:26.000Z,100344
2018-04-15T00:04:26.000Z,100342
2018-04-15T00:05:26.000Z,100342
2018-04-15T00:07:26.000Z,100339
2018-04-15T00:09:26.000Z,100343
2018-04-15T00:10:26.000Z,100344
2018-04-15T00:12:26.000Z,100337
2018-04-15T00:14:26.000Z,100361
2018-04-15T00:16:26.000Z,100372
2018-04-15T00:17:26.000Z,100380
2018-04-15T00:19:26.000Z,100383
2018-04-15T00:20:26.000Z,100377
2018-04-15T00:22:26.000Z,100380
2018-04-15T00:24:26.000Z,100379
2018-04-15T00:26:26.000Z,100381
2018-04-15T00:27:26.000Z,100381
2018-04-15T00:28:26.000Z,100381
2018-04-15T00:30:26.000Z,100375
2018-04-15T00:32:26.000Z,100370
2018-04-15T00:34:26.000Z,100368
2018-04-15T00:36:26.000Z,100367
2018-04-15T00:37:26.000Z,100364
2018-04-15T00:39:11.000Z,100367
2018-04-15T00:40:26.000Z,100365
2018-04-15T00:42:26.000Z,100367
2018-04-15T00:43:26.000Z,100363
2018-04-15T00:45:26.000Z,100362
2018-04-15T00:47:26.000Z,100359
2018-04-15T00:48:26.000Z,100357
2018-04-15T00:50:26.000Z,100354
2018-04-15T00:51:26.000Z,100356
2018-04-15T00:53:11.000Z,100361
2018-04-15T00:54:26.000Z,100359
2018-04-15T00:55:26.000Z,100355
2018-04-15T00:56:26.000Z,100351
2018-04-15T00:58:26.000Z,100353
2018-04-15T01:00:11.000Z,100353
2018-04-15T01:01:26.000Z,100351
2018-04-15T01:02:26.000Z,100347
2018-04-15T01:03:26.000Z,100350
2018-04-15T01:05:26.000Z,100350
2018-04-15T01:07:11.000Z,100353
2018-04-15T01:08:26.000Z,100346
2018-04-15T01:10:26.000Z,100349
2018-04-15T01:12:26.000Z,100342
2018-04-15T01:13:26.000Z,100343
2018-04-15T01:15:26.000Z,100341
2018-04-15T01:17:26.000Z,100337
2018-04-15T01:19:26.000Z,100336
2018-04-15T01:21:26.000Z,100336
2018-04-15T01:23:26.000Z,100331
2018-04-15T01:24:26.000Z,100331
2018-04-15T01:25:26.000Z,100324
2018-04-15T01:27:11.000Z,100330
2018-04-15T01:28:26.000Z,100320
2018-04-15T01:30:11.000Z,100319
2018-04-15T01:31:26.000Z,100317
2018-04-15T01:33:26.000Z,100311
2018-04-15T01:34:26.000Z,100313
2018-04-15T01:36:26.000Z,100314
2018-04-15T01:37:26.000Z,100315
2018-04-15T01:38:26.000Z,100311
2018-04-15T01:40:26.000Z,100309
2018-04-15T01:41:26.000Z,100311
2018-04-15T01:43:11.000Z,100303
2018-04-15T01:44:26.000Z,100303
2018-04-15T01:45:26.000Z,100304
2018-04-15T01:47:26.000Z,100299
2018-04-15T01:49:26.000Z,100299
2018-04-15T01:50:26.000Z,100302
2018-04-15T01:51:26.000Z,100297
2018-04-15T01:53:26.000Z,100302
2018-04-15T01:54:26.000Z,100296
2018-04-15T01:56:26.000Z,100300
2018-04-15T01:57:26.000Z,100302
2018-04-15T01:59:11.000Z,100305
2018-04-15T02:00:26.000Z,100298
2018-04-15T02:02:26.000Z,100300
2018-04-15T02:04:26.000Z,100301
2018-04-15T02:06:26.000Z,100294
2018-04-15T02:08:26.000Z,100295
2018-04-15T02:09:26.000Z,100292
2018-04-15T02:11:26.000Z,100299
2018-04-15T02:12:26.000Z,100294
2018-04-15T02:14:26.000Z,100298
2018-04-15T02:15:26.000Z,100291
2018-04-15T02:17:26.000Z,100296
2018-04-15T02:19:26.000Z,100291
2018-04-15T02:21:26.000Z,100294
2018-04-15T02:23:26.000Z,100290
2018-04-15T02:25:26.000Z,100287
2018-04-15T02:27:26.000Z,100287
2018-04-15T02:28:56.000Z,100292
2018-04-15T02:30:26.000Z,100288
2018-04-15T02:31:26.000Z,100289
2018-04-15T02:33:26.000Z,100291
2018-04-15T02:35:11.000Z,100288
2018-04-15T02:36:26.000Z,100293
2018-04-15T02:38:26.000Z,100290
2018-04-15T02:40:11.000Z,100285
2018-04-15T02:41:26.000Z,100275
2018-04-15T02:43:26.000Z,100281
2018-04-15T02:44:26.000Z,100285
2018-04-15T02:45:56.000Z,100288
2018-04-15T02:47:26.000Z,100286
2018-04-15T02:49:11.000Z,100286
2018-04-15T02:50:26.000Z,100288
2018-04-15T02:51:26.000Z,100282
2018-04-15T02:52:26.000Z,100278
2018-04-15T02:53:26.000Z,100280
2018-04-15T02:55:26.000Z,100281
2018-04-15T02:57:26.000Z,100283
2018-04-15T02:58:26.000Z,100286
2018-04-15T03:00:11.000Z,100283
2018-04-15T03:01:26.000Z,100281
2018-04-15T03:03:26.000Z,100283
2018-04-15T03:04:26.000Z,100277
2018-04-15T03:06:26.000Z,100278
2018-04-15T03:08:11.000Z,100278
2018-04-15T03:09:26.000Z,100277
2018-04-15T03:10:26.000Z,100280
2018-04-15T03:12:26.000Z,100277
2018-04-15T03:14:26.000Z,100281
2018-04-15T03:16:26.000Z,100278
2018-04-15T03:18:26.000Z,100272
2018-04-15T03:19:26.000Z,100270
2018-04-15T03:21:26.000Z,100268
2018-04-15T03:22:26.000Z,100266
2018-04-15T03:24:26.000Z,100262
2018-04-15T03:26:26.000Z,100260
2018-04-15T03:27:26.000Z,100263
2018-04-15T03:29:26.000Z,100260
2018-04-15T03:30:26.000Z,100265
2018-04-15T03:31:26.000Z,100261
2018-04-15T03:33:26.000Z,100257
2018-04-15T03:35:26.000Z,100253
2018-04-15T03:36:26.000Z,100261
2018-04-15T03:38:26.000Z,100250
2018-04-15T03:40:26.000Z,100248
2018-04-15T03:42:26.000Z,100246
2018-04-15T03:43:26.000Z,100248
2018-04-15T03:44:26.000Z,100246
2018-04-15T03:46:11.000Z,100243
2018-04-15T03:47:27.000Z,100244
2018-04-15T03:48:27.000Z,100244
2018-04-15T03:50:27.000Z,100242
2018-04-15T03:51:27.000Z,100244
2018-04-15T03:53:27.000Z,100243
2018-04-15T03:55:26.000Z,100242
2018-04-15T03:56:27.000Z,100242
2018-04-15T03:57:27.000Z,100243
2018-04-15T03:58:27.000Z,100240
2018-04-15T04:00:27.000Z,100237
2018-04-15T04:01:27.000Z,100236
2018-04-15T04:03:27.000Z,100242
2018-04-15T04:05:11.000Z,100239
2018-04-15T04:06:27.000Z,100239
2018-04-15T04:08:11.000Z,100240
2018-04-15T04:09:26.000Z,100233
2018-04-15T04:10:27.000Z,100237
2018-04-15T04:12:27.000Z,100232
2018-04-15T04:13:56.000Z,100235
2018-04-15T04:15:27.000Z,100237
2018-04-15T04:17:27.000Z,100240
2018-04-15T04:18:27.000Z,100242
2018-04-15T04:20:11.000Z,100240
2018-04-15T04:21:26.000Z,100246
2018-04-15T04:22:27.000Z,100247
2018-04-15T04:24:27.000Z,100251
2018-04-15T04:26:27.000Z,100244
2018-04-15T04:27:27.000Z,100251
2018-04-15T04:29:27.000Z,100247
2018-04-15T04:31:27.000Z,100255
2018-04-15T04:32:56.000Z,100254
2018-04-15T04:34:27.000Z,100252
2018-04-15T04:35:27.000Z,100249
2018-04-15T04:36:27.000Z,100248
2018-04-15T04:38:11.000Z,100245
2018-04-15T04:39:27.000Z,100247
2018-04-15T04:40:27.000Z,100244
2018-04-15T04:42:27.000Z,100252
2018-04-15T04:43:27.000Z,100250
2018-04-15T04:45:11.000Z,100257
2018-04-15T04:46:11.000Z,100246
2018-04-15T04:47:27.000Z,100252
2018-04-15T04:49:27.000Z,100254
2018-04-15T04:50:26.000Z,100252
2018-04-15T04:52:26.000Z,100252
2018-04-15T04:54:26.000Z,100248
2018-04-15T04:55:26.000Z,100252
2018-04-15T04:57:26.000Z,100254
2018-04-15T04:59:26.000Z,100252
2018-04-15T05:00:26.000Z,100252
2018-04-15T05:02:26.000Z,100249
2018-04-15T05:04:26.000Z,100261
2018-04-15T05:05:26.000Z,100260
2018-04-15T05:07:26.000Z,100262
2018-04-15T05:09:11.000Z,100263
2018-04-15T05:10:26.000Z,100261
2018-04-15T05:12:26.000Z,100257
2018-04-15T05:13:26.000Z,100262
2018-04-15T05:14:26.000Z,100261
2018-04-15T05:16:26.000Z,100259
2018-04-15T05:18:26.000Z,100258
2018-04-15T05:20:26.000Z,100264
2018-04-15T05:22:26.000Z,100260
2018-04-15T05:24:26.000Z,100263
2018-04-15T05:26:26.000Z,100264
2018-04-15T06:04:46.000Z,100248
2018-04-15T06:06:30.000Z,100250
2018-04-15T06:07:45.000Z,100249
2018-04-15T06:09:45.000Z,100240
2018-04-15T06:11:45.000Z,100242
2018-04-15T06:13:45.000Z,100239
2018-04-15T06:15:45.000Z,100240
2018-04-15T06:17:45.000Z,100239
2018-04-15T06:19:45.000Z,100238
2018-04-15T06:21:45.000Z,100233
2018-04-15T06:23:45.000Z,100225
2018-04-15T06:25:45.000Z,100226
2018-04-15T06:27:30.000Z,100221
2018-04-15T06:28:45.000Z,100222
2018-04-15T06:29:45.000Z,100216
2018-04-15T06:31:45.000Z,100218
2018-04-15T06:36:45.000Z,100214
2018-04-15T06:38:16.000Z,100213
2018-04-15T06:39:31.000Z,100208
2018-04-15T06:40:31.000Z,100204
2018-04-15T06:42:31.000Z,100198
2018-04-15T06:43:31.000Z,100202
2018-04-15T06:45:31.000Z,100192
2018-04-15T06:47:31.000Z,100186
2018-04-15T06:49:31.000Z,100185
2018-04-15T06:50:31.000Z,100182
2018-04-15T06:52:31.000Z,100173
2018-04-15T06:53:31.000Z,100171
2018-04-15T06:55:31.000Z,100166
2018-04-15T06:56:31.000Z,100161
2018-04-15T06:58:31.000Z,100161
2018-04-15T07:00:31.000Z,100157
2018-04-15T07:02:31.000Z,100150
2018-04-15T07:04:31.000Z,100149
2018-04-15T07:06:31.000Z,100146
2018-04-15T07:07:31.000Z,100143
2018-04-15T07:09:16.000Z,100140
2018-04-15T07:10:31.000Z,100140
2018-04-15T07:11:31.000Z,100138
2018-04-15T07:13:31.000Z,100135
2018-04-15T07:15:16.000Z,100135
2018-04-15T07:16:31.000Z,100133
2018-04-15T07:18:31.000Z,100137
2018-04-15T07:20:31.000Z,100133
2018-04-15T07:22:31.000Z,100131
2018-04-15T07:24:31.000Z,100127
2018-04-15T07:25:31.000Z,100124
2018-04-15T07:27:31.000Z,100125
2018-04-15T07:28:31.000Z,100121
2018-04-15T07:30:31.000Z,100128
2018-04-15T07:31:31.000Z,100118
2018-04-15T07:33:31.000Z,100118
2018-04-15T07:34:31.000Z,100118
2018-04-15T07:36:31.000Z,100114
2018-04-15T07:37:31.000Z,100109
2018-04-15T07:39:31.000Z,100109
2018-04-15T07:40:31.000Z,100107
2018-04-15T07:42:31.000Z,100106
2018-04-15T07:43:31.000Z,100103
2018-04-15T07:45:31.000Z,100104
2018-04-15T07:47:16.000Z,100102
2018-04-15T07:48:31.000Z,100099
2018-04-15T07:50:31.000Z,100095
2018-04-15T07:52:31.000Z,100097
2018-04-15T07:54:31.000Z,100096
2018-04-15T07:56:31.000Z,100092
2018-04-15T07:58:31.000Z,100093
2018-04-15T08:00:31.000Z,100090
2018-04-15T08:02:31.000Z,100088
2018-04-15T08:04:31.000Z,100082
2018-04-15T08:06:31.000Z,100078
2018-04-15T08:08:31.000Z,100076
2018-04-15T08:09:31.000Z,100071
2018-04-15T08:11:31.000Z,100073
2018-04-15T08:12:31.000Z,100076
2018-04-15T08:14:31.000Z,100078
2018-04-15T08:16:31.000Z,100076
2018-04-15T08:17:31.000Z,100077
2018-04-15T08:19:31.000Z,100081
2018-04-15T08:21:31.000Z,100079
2018-04-15T08:23:31.000Z,100082
2018-04-15T08:24:31.000Z,100078
2018-04-15T08:25:31.000Z,100078
2018-04-15T08:27:31.000Z,100074
2018-04-15T08:29:01.000Z,100073
2018-04-15T08:30:31.000Z,100082
2018-04-15T08:32:16.000Z,100079
2018-04-15T08:33:31.000Z,100084
2018-04-15T08:34:31.000Z,100079
2018-04-15T08:36:16.000Z,100083
2018-04-15T08:37:31.000Z,100077
2018-04-15T08:39:31.000Z,100077
2018-04-15T08:40:31.000Z,100076
2018-04-15T08:42:31.000Z,100076
2018-04-15T08:43:31.000Z,100077
2018-04-15T08:45:31.000Z,100066
2018-04-15T08:47:01.000Z,100062
2018-04-15T08:48:31.000Z,100066
2018-04-15T08:50:31.000Z,100064
2018-04-15T08:51:31.000Z,100064
2018-04-15T08:53:31.000Z,100061
2018-04-15T08:55:31.000Z,100063
2018-04-15T08:56:31.000Z,100061
2018-04-15T08:57:31.000Z,100061
2018-04-15T08:59:31.000Z,100049
2018-04-15T09:00:31.000Z,100058
2018-04-15T09:02:31.000Z,100054
2018-04-15T09:04:31.000Z,100063
2018-04-15T09:06:31.000Z,100055
2018-04-15T09:08:16.000Z,100058
2018-04-15T09:09:31.000Z,100056
2018-04-15T09:10:31.000Z,100062
2018-04-15T09:12:31.000Z,100053
2018-04-15T09:14:31.000Z,100053
2018-04-15T09:15:31.000Z,100052
2018-04-15T09:17:31.000Z,100045
2018-04-15T09:19:31.000Z,100048
2018-04-15T09:21:31.000Z,100055
2018-04-15T09:23:31.000Z,100056
2018-04-15T09:25:31.000Z,100054
2018-04-15T09:27:16.000Z,100052
2018-04-15T09:28:31.000Z,100052
2018-04-15T09:30:31.000Z,100049
2018-04-15T09:31:31.000Z,100047
2018-04-15T09:32:31.000Z,100043
2018-04-15T09:34:16.000Z,100042
2018-04-15T09:35:31.000Z,100035
2018-04-15T09:37:31.000Z,100034
2018-04-15T09:39:31.000Z,100029
2018-04-15T09:41:31.000Z,100023
2018-04-15T09:43:31.000Z,100024
2018-04-15T09:45:31.000Z,100020
2018-04-15T09:47:31.000Z,100024
2018-04-15T09:48:31.000Z,100028
2018-04-15T09:50:31.000Z,100031
2018-04-15T09:51:31.000Z,100021
2018-04-15T09:53:16.000Z,100019
2018-04-15T09:54:31.000Z,100022
2018-04-15T09:55:31.000Z,100018
2018-04-15T09:56:31.000Z,100022
2018-04-15T09:58:16.000Z,100018
2018-04-15T09:59:31.000Z,100016
2018-04-15T10:01:31.000Z,100017
2018-04-15T10:02:31.000Z,100018
2018-04-15T10:04:31.000Z,100023
2018-04-15T10:06:16.000Z,100019
2018-04-15T10:07:32.000Z,100017
2018-04-15T10:08:32.000Z,100015
2018-04-15T10:09:32.000Z,100014
2018-04-15T10:10:32.000Z,100018
2018-04-15T10:11:32.000Z,100012
2018-04-15T10:13:32.000Z,100017
2018-04-15T10:14:32.000Z,100017
2018-04-15T10:16:32.000Z,100013
2018-04-15T10:18:32.000Z,100019
2018-04-15T10:20:32.000Z,100015
2018-04-15T10:22:16.000Z,100011
2018-04-15T10:23:32.000Z,100012
2018-04-15T10:24:32.000Z,100007
2018-04-15T10:26:32.000Z,100007
2018-04-15T10:27:32.000Z,100004
2018-04-15T10:29:32.000Z,100004
2018-04-15T10:30:32.000Z,100003
2018-04-15T10:32:32.000Z,100000
2018-04-15T10:33:32.000Z,99994
2018-04-15T10:35:16.000Z,99996
2018-04-15T10:36:32.000Z,100000
2018-04-15T10:37:32.000Z,99999
2018-04-15T10:39:32.000Z,99993
2018-04-15T10:40:32.000Z,100002
2018-04-15T10:42:32.000Z,99997
2018-04-15T10:44:32.000Z,99996
2018-04-15T10:45:32.000Z,99992
2018-04-15T10:47:32.000Z,99993
2018-04-15T10:48:32.000Z,99992
2018-04-15T10:50:16.000Z,99996
2018-04-15T10:51:32.000Z,99996
2018-04-15T10:53:32.000Z,99994
2018-04-15T10:54:32.000Z,99996
2018-04-15T10:56:16.000Z,99989
2018-04-15T10:57:32.000Z,99996
2018-04-15T10:58:32.000Z,99991
2018-04-15T10:59:32.000Z,99993
2018-04-15T11:01:16.000Z,99985
2018-04-15T11:02:32.000Z,99981
2018-04-15T11:04:32.000Z,99971
2018-04-15T11:06:32.000Z,99977
2018-04-15T11:08:32.000Z,99973
2018-04-15T11:09:32.000Z,99975
2018-04-15T11:11:31.000Z,99970
2018-04-15T11:13:31.000Z,99961
2018-04-15T11:14:31.000Z,99966
2018-04-15T11:16:31.000Z,99964
2018-04-15T11:17:31.000Z,99957
2018-04-15T11:18:31.000Z,99959
2018-04-15T11:20:31.000Z,99968
2018-04-15T11:22:31.000Z,99967
2018-04-15T11:23:31.000Z,99969
2018-04-15T11:25:31.000Z,99963
2018-04-15T11:27:16.000Z,99966
2018-04-15T11:28:31.000Z,99964
2018-04-15T11:30:31.000Z,99962
2018-04-15T11:32:31.000Z,99965
2018-04-15T11:34:31.000Z,99968
2018-04-15T11:36:31.000Z,99963
2018-04-15T11:38:31.000Z,99965
2018-04-15T11:39:31.000Z,99971
2018-04-15T11:41:31.000Z,99964
2018-04-15T11:43:31.000Z,99961
2018-04-15T11:45:31.000Z,99960
2018-04-15T11:47:16.000Z,99957
2018-04-15T11:48:31.000Z,99958
2018-04-15T11:50:31.000Z,99960
2018-04-15T11:52:31.000Z,99963
2018-04-15T11:53:31.000Z,99956
2018-04-15T11:55:31.000Z,99960
2018-04-15T11:57:31.000Z,99962
2018-04-15T11:59:31.000Z,99963
2018-04-15T12:01:31.000Z,99953
2018-04-15T12:03:31.000Z,99950
2018-04-15T12:05:16.000Z,99952
2018-04-15T12:06:31.000Z,99953
2018-04-15T12:08:31.000Z,99952
2018-04-15T12:09:31.000Z,99949
2018-04-15T12:11:31.000Z,99947
2018-04-15T12:13:31.000Z,99939
2018-04-15T12:14:31.000Z,99942
2018-04-15T12:16:16.000Z,99942
2018-04-15T12:17:31.000Z,99938
2018-04-15T12:19:31.000Z,99933
2018-04-15T12:21:31.000Z,99934
2018-04-15T12:23:16.000Z,99937
2018-04-15T12:24:31.000Z,99928
2018-04-15T12:26:16.000Z,99940
2018-04-15T12:27:31.000Z,99936
2018-04-15T12:29:16.000Z,99932
2018-04-15T12:30:31.000Z,99927
2018-04-15T12:32:16.000Z,99928
2018-04-15T12:33:31.000Z,99932
2018-04-15T12:34:31.000Z,99923
2018-04-15T12:35:31.000Z,99920
2018-04-15T12:37:31.000Z,99919
2018-04-15T12:38:31.000Z,99919
2018-04-15T12:40:31.000Z,99920
2018-04-15T12:42:31.000Z,99913
2018-04-15T12:43:31.000Z,99919
2018-04-15T12:44:31.000Z,99919
2018-04-15T12:46:31.000Z,99917
2018-04-15T12:48:31.000Z,99909
2018-04-15T12:50:31.000Z,99906
2018-04-15T12:51:31.000Z,99909
2018-04-15T12:53:31.000Z,99900
2018-04-15T12:55:31.000Z,99902
2018-04-15T12:56:31.000Z,99899
2018-04-15T12:58:31.000Z,99897
2018-04-15T13:00:16.000Z,99901
2018-04-15T13:01:31.000Z,99898
2018-04-15T13:02:31.000Z,99893
2018-04-15T13:04:31.000Z,99900
2018-04-15T13:05:31.000Z,99901
2018-04-15T13:07:31.000Z,99887
2018-04-15T13:08:31.000Z,99885
2018-04-15T13:10:31.000Z,99890
2018-04-15T13:11:31.000Z,99886
2018-04-15T13:12:31.000Z,99887
2018-04-15T13:14:31.000Z,99886
2018-04-15T13:16:31.000Z,99883
2018-04-15T13:18:31.000Z,99883
2018-04-15T13:20:31.000Z,99879
2018-04-15T13:22:31.000Z,99879
2018-04-15T13:24:16.000Z,99882
2018-04-15T13:25:31.000Z,99879
2018-04-15T13:27:16.000Z,99878
2018-04-15T13:28:31.000Z,99877
2018-04-15T13:29:31.000Z,99877
2018-04-15T13:31:31.000Z,99872
2018-04-15T13:32:31.000Z,99871
2018-04-15T13:34:31.000Z,99870
2018-04-15T13:36:31.000Z,99864
2018-04-15T13:38:16.000Z,99864
2018-04-15T13:39:31.000Z,99862
2018-04-15T13:41:31.000Z,99861
2018-04-15T13:43:31.000Z,99858
2018-04-15T13:45:31.000Z,99858
2018-04-15T13:47:31.000Z,99859
2018-04-15T13:49:31.000Z,99857
2018-04-15T13:51:31.000Z,99849
2018-04-15T13:53:31.000Z,99849
2018-04-15T13:55:31.000Z,99851
2018-04-15T13:57:31.000Z,99851
2018-04-15T13:59:01.000Z,99851
2018-04-15T14:00:31.000Z,99849
2018-04-15T14:02:16.000Z,99844
2018-04-15T14:03:31.000Z,99842
2018-04-15T14:04:31.000Z,99839
2018-04-15T14:06:31.000Z,99839
2018-04-15T14:08:31.000Z,99838
2018-04-15T14:10:31.000Z,99837
2018-04-15T14:11:31.000Z,99833
2018-04-15T14:12:32.000Z,99838
2018-04-15T14:14:16.000Z,99833
2018-04-15T14:15:31.000Z,99825
2018-04-15T14:17:31.000Z,99827
2018-04-15T14:19:31.000Z,99822
2018-04-15T14:20:31.000Z,99817
2018-04-15T14:22:01.000Z,99823
2018-04-15T14:23:31.000Z,99826
2018-04-15T14:24:31.000Z,99820
2018-04-15T14:26:31.000Z,99817
2018-04-15T14:28:31.000Z,99811
2018-04-15T14:30:16.000Z,99811
2018-04-15T14:31:31.000Z,99807
2018-04-15T14:32:31.000Z,99804
2018-04-15T14:34:31.000Z,99804
2018-04-15T14:36:31.000Z,99803
2018-04-15T14:38:31.000Z,99807
2018-04-15T14:40:31.000Z,99804
2018-04-15T14:42:31.000Z,99798
2018-04-15T14:44:31.000Z,99804
2018-04-15T14:45:31.000Z,99799
2018-04-15T14:47:31.000Z,99792
2018-04-15T14:48:31.000Z,99792
2018-04-15T14:50:31.000Z,99793
2018-04-15T14:52:31.000Z,99793
2018-04-15T14:53:31.000Z,99791
2018-04-15T14:55:31.000Z,99786
2018-04-15T14:57:16.000Z,99786
2018-04-15T14:58:31.000Z,99783
2018-04-15T15:00:31.000Z,99780
2018-04-15T15:02:31.000Z,99779
2018-04-15T15:04:31.000Z,99780
2018-04-15T15:06:31.000Z,99775
2018-04-15T15:08:31.000Z,99775
2018-04-15T15:09:32.000Z,99773
2018-04-15T15:11:16.000Z,99770
2018-04-15T15:12:31.000Z,99767
2018-04-15T15:14:17.000Z,99711
2018-04-15T15:15:31.000Z,99760
2018-04-15T15:16:31.000Z,99763
2018-04-15T15:18:16.000Z,99759
2018-04-15T15:19:31.000Z,99754
2018-04-15T15:21:16.000Z,99759
2018-04-15T15:22:32.000Z,99759
2018-04-15T15:24:31.000Z,99764
2018-04-15T15:26:31.000Z,99764
2018-04-15T15:27:31.000Z,99766
2018-04-15T15:28:31.000Z,99765
2018-04-15T15:29:31.000Z,99762
2018-04-15T15:31:31.000Z,99762
2018-04-15T15:32:31.000Z,99764
2018-04-15T15:34:16.000Z,99767
2018-04-15T15:35:31.000Z,99760
2018-04-15T15:37:31.000Z,99761
2018-04-15T15:39:16.000Z,99759
2018-04-15T15:40:31.000Z,99762
2018-04-15T15:42:31.000Z,99761
2018-04-15T15:43:31.000Z,99761
2018-04-15T15:45:31.000Z,99762
2018-04-15T15:47:31.000Z,99762
2018-04-15T15:49:31.000Z,99757
2018-04-15T15:51:31.000Z,99756
2018-04-15T15:53:00.000Z,99763
2018-04-15T15:54:31.000Z,99756
2018-04-15T15:56:31.000Z,99759
2018-04-15T15:57:31.000Z,99764
2018-04-15T15:59:31.000Z,99763
2018-04-15T16:01:16.000Z,99762
2018-04-15T16:02:31.000Z,99763
2018-04-15T16:04:16.000Z,99755
2018-04-15T16:05:31.000Z,99758
2018-04-15T16:06:31.000Z,99756
2018-04-15T16:08:31.000Z,99754
2018-04-15T16:10:31.000Z,99750
2018-04-15T16:12:31.000Z,99760
2018-04-15T16:13:31.000Z,99753
2018-04-15T16:15:00.000Z,99757
2018-04-15T16:16:31.000Z,99750
2018-04-15T16:18:31.000Z,99754
2018-04-15T16:19:31.000Z,99758
2018-04-15T16:21:31.000Z,99761
2018-04-15T16:23:31.000Z,99759
2018-04-15T16:25:31.000Z,99762
2018-04-15T16:27:31.000Z,99756
2018-04-15T16:29:16.000Z,99761
2018-04-15T16:31:31.000Z,99759
2018-04-15T16:32:31.000Z,99760
2018-04-15T16:33:31.000Z,99758
2018-04-15T16:34:31.000Z,99760
2018-04-15T16:36:31.000Z,99759
2018-04-15T16:37:31.000Z,99761
2018-04-15T16:39:31.000Z,99761
2018-04-15T16:40:31.000Z,99764
2018-04-15T16:42:16.000Z,99762
2018-04-15T16:43:31.000Z,99766
2018-04-15T16:45:31.000Z,99760
2018-04-15T16:47:31.000Z,99759
2018-04-15T16:49:31.000Z,99764
2018-04-15T16:51:31.000Z,99763
2018-04-15T16:52:31.000Z,99763
2018-04-15T16:54:31.000Z,99763
2018-04-15T16:56:16.000Z,99774
2018-04-15T16:57:31.000Z,99774
2018-04-15T16:58:31.000Z,99771
2018-04-15T16:59:31.000Z,99767
2018-04-15T17:01:31.000Z,99772
2018-04-15T17:03:31.000Z,99772
2018-04-15T17:05:31.000Z,99773
2018-04-15T17:06:31.000Z,99777
2018-04-15T17:08:31.000Z,99780
2018-04-15T17:10:31.000Z,99781
2018-04-15T17:11:31.000Z,99781
2018-04-15T17:13:31.000Z,99781
2018-04-15T17:15:31.000Z,99780
2018-04-15T17:16:31.000Z,99778
2018-04-15T17:18:31.000Z,99784
2018-04-15T17:20:31.000Z,99781
2018-04-15T17:21:31.000Z,99781
2018-04-15T17:23:31.000Z,99777
2018-04-15T17:24:31.000Z,99777
2018-04-15T17:26:31.000Z,99779
2018-04-15T17:28:31.000Z,99785
2018-04-15T17:30:16.000Z,99782
2018-04-15T17:31:31.000Z,99790
2018-04-15T17:32:32.000Z,99784
2018-04-15T17:34:32.000Z,99786
2018-04-15T17:36:32.000Z,99784
2018-04-15T17:37:32.000Z,99789
2018-04-15T17:39:32.000Z,99792
2018-04-15T17:41:16.000Z,99792
2018-04-15T17:42:32.000Z,99795
2018-04-15T17:44:32.000Z,99792
2018-04-15T17:46:01.000Z,99799
2018-04-15T17:47:32.000Z,99805
2018-04-15T17:49:32.000Z,99804
2018-04-15T17:51:32.000Z,99801
2018-04-15T17:53:32.000Z,99804
2018-04-15T17:55:32.000Z,99807
2018-04-15T17:57:32.000Z,99810
2018-04-15T17:58:32.000Z,99810
2018-04-15T18:00:16.000Z,99808
2018-04-15T18:01:32.000Z,99808
2018-04-15T18:03:32.000Z,99804
2018-04-15T18:04:32.000Z,99808
2018-04-15T18:05:32.000Z,99800
2018-04-15T18:07:32.000Z,99804
2018-04-15T18:08:32.000Z,99799
2018-04-15T18:10:32.000Z,99807
2018-04-15T18:12:32.000Z,99809
2018-04-15T18:14:32.000Z,99809
2018-04-15T18:16:32.000Z,99813
2018-04-15T18:18:32.000Z,99806
2018-04-15T18:20:32.000Z,99803
2018-04-15T18:22:32.000Z,99800
2018-04-15T18:23:32.000Z,99808
2018-04-15T18:25:32.000Z,99810
2018-04-15T18:26:32.000Z,99806
2018-04-15T18:28:32.000Z,99810
2018-04-15T18:30:32.000Z,99817
2018-04-15T18:32:16.000Z,99817
2018-04-15T18:33:32.000Z,99825
2018-04-15T18:35:16.000Z,99830
2018-04-15T18:36:31.000Z,99834
2018-04-15T18:37:31.000Z,99836
2018-04-15T18:39:31.000Z,99832
2018-04-15T18:40:31.000Z,99835
2018-04-15T18:42:31.000Z,99839
2018-04-15T18:43:31.000Z,99842
2018-04-15T18:45:31.000Z,99840
2018-04-15T18:47:31.000Z,99838
2018-04-15T18:49:31.000Z,99842
2018-04-15T18:50:31.000Z,99839
2018-04-15T18:52:31.000Z,99843
2018-04-15T18:53:31.000Z,99845
2018-04-15T18:55:31.000Z,99844
2018-04-15T18:57:16.000Z,99842
2018-04-15T18:58:31.000Z,99844
2018-04-15T19:00:31.000Z,99847
2018-04-15T19:01:31.000Z,99850
2018-04-15T19:02:31.000Z,99855
2018-04-15T19:04:31.000Z,99851
2018-04-15T19:05:31.000Z,99854
2018-04-15T19:07:16.000Z,99857
2018-04-15T19:08:31.000Z,99854
2018-04-15T19:10:31.000Z,99854
2018-04-15T19:11:31.000Z,99855
2018-04-15T19:13:31.000Z,99859
2018-04-15T19:15:31.000Z,99858
2018-04-15T19:17:31.000Z,99854
2018-04-15T19:18:31.000Z,99858
2018-04-15T19:20:31.000Z,99863
2018-04-15T19:22:31.000Z,99857
2018-04-15T19:24:31.000Z,99855
2018-04-15T19:25:31.000Z,99858
2018-04-15T19:27:31.000Z,99859
2018-04-15T19:28:31.000Z,99857
2018-04-15T19:29:31.000Z,99855
2018-04-15T19:31:31.000Z,99853
2018-04-15T19:33:31.000Z,99856
2018-04-15T19:34:31.000Z,99854
2018-04-15T19:36:31.000Z,99850
2018-04-15T19:38:31.000Z,99851
2018-04-15T19:40:16.000Z,99853
2018-04-15T19:41:32.000Z,99852
2018-04-15T19:43:32.000Z,99843
2018-04-15T19:45:16.000Z,99839
2018-04-15T19:46:32.000Z,99843
2018-04-15T19:47:32.000Z,99839
2018-04-15T19:49:32.000Z,99841
2018-04-15T19:51:16.000Z,99838
2018-04-15T19:52:32.000Z,99842
2018-04-15T19:54:32.000Z,99841
2018-04-15T19:55:32.000Z,99846
2018-04-15T19:57:32.000Z,99845
2018-04-15T19:59:32.000Z,99840
2018-04-15T20:01:32.000Z,99840
2018-04-15T20:03:32.000Z,99838
2018-04-15T20:05:32.000Z,99836
2018-04-15T20:06:32.000Z,99830
2018-04-15T20:08:32.000Z,99828
2018-04-15T20:10:32.000Z,99828
2018-04-15T20:12:16.000Z,99823
2018-04-15T20:13:16.000Z,99824
2018-04-15T20:14:32.000Z,99821
2018-04-15T20:16:01.000Z,99813
2018-04-15T20:17:32.000Z,99813
2018-04-15T20:19:32.000Z,99815
2018-04-15T20:21:16.000Z,99818
2018-04-15T20:22:16.000Z,99812
2018-04-15T20:23:32.000Z,99810
2018-04-15T20:24:32.000Z,99803
2018-04-15T20:26:32.000Z,99811
2018-04-15T20:28:32.000Z,99811
2018-04-15T20:30:32.000Z,99812
2018-04-15T20:31:32.000Z,99814
2018-04-15T20:33:32.000Z,99812
2018-04-15T20:34:32.000Z,99818
2018-04-15T20:36:32.000Z,99820
2018-04-15T20:38:16.000Z,99823
2018-04-15T20:39:32.000Z,99821
2018-04-15T20:41:32.000Z,99821
2018-04-15T20:42:32.000Z,99819
2018-04-15T20:44:31.000Z,99819
2018-04-15T20:45:31.000Z,99821
2018-04-15T20:47:31.000Z,99823
2018-04-15T20:48:31.000Z,99819
2018-04-15T20:49:31.000Z,99822
2018-04-15T20:50:31.000Z,99821
2018-04-15T20:52:31.000Z,99821
2018-04-15T20:54:16.000Z,99826
2018-04-15T20:55:31.000Z,99831
2018-04-15T20:56:31.000Z,99838
2018-04-15T20:58:31.000Z,99841